McNutt, Louisiana
Current Conditions -  °F | °C
As of 10:53 AM on Friday 21 Nov 2014 (Local Time) from KAEX Reporting Station
Overcast Overcast  
Wind Chill: 63°   Ceiling: 7000
Heat Index: 63°   Visibility: 10mi
Dew Point: 48°   Wind: 12mph
Humidity: 58%   Direction: 140°SE
Pressure: 30.25"   Gusts: NA
Location:  31.3168°N, 92.7338°W
Report Text: KAEX 211653Z 14010KT 10SM OVC070 17/09 A3025 RMK AO2 SLP246 T01720089
Loading
Personal Weather Stations






























Interactive Weather Map New forecast layout! Learn more

10-Day Weather Forecast

Advertisements
Track Severe Weather on mobile